Time;durP1;ratioP1;P1;durP2;ratioP2;P2;SDS_P1;SDS_P2;PMS_P1;PMS_P2;Temp;Humidity;BMP_temperature;BMP_pressure;BME280_temperature;BME280_humidity;BME280_pressure;Samples;Min_cycle;Max_cycle;Signal;HPM_P1;HPM_P2
2023/07/14 00:00:17;;;;;;;9.40;3.85;;;16.90;99.90;;;;;;5023554;28;20036;-82
2023/07/14 00:02:48;;;;;;;11.43;4.22;;;16.90;99.90;;;;;;5030918;28;20057;-82
2023/07/14 00:05:27;;;;;;;10.18;3.90;;;16.80;99.90;;;;;;5012889;28;20029;-82
2023/07/14 00:07:54;;;;;;;11.52;3.92;;;16.80;99.90;;;;;;5032258;28;20037;-82
2023/07/14 00:10:30;;;;;;;10.55;4.40;;;16.80;99.90;;;;;;5022655;28;20049;-82
2023/07/14 00:12:58;;;;;;;10.98;4.70;;;16.70;99.90;;;;;;5011848;28;20074;-82
2023/07/14 00:15:24;;;;;;;11.68;4.43;;;16.70;99.90;;;;;;5026423;28;20044;-82
2023/07/14 00:17:55;;;;;;;13.88;4.60;;;16.60;99.90;;;;;;5010463;28;20033;-81
2023/07/14 00:20:26;;;;;;;10.85;4.45;;;16.60;99.90;;;;;;5030789;28;20162;-82
2023/07/14 00:22:53;;;;;;;11.88;4.03;;;16.50;99.90;;;;;;5025592;28;20041;-82
2023/07/14 00:25:22;;;;;;;14.48;4.72;;;16.50;99.90;;;;;;5032284;28;20041;-82
2023/07/14 00:27:49;;;;;;;10.13;4.47;;;16.50;99.90;;;;;;5019092;28;20037;-82
2023/07/14 00:30:18;;;;;;;9.07;4.47;;;16.40;99.90;;;;;;5028791;28;20053;-82
2023/07/14 00:32:45;;;;;;;11.43;4.15;;;16.40;99.90;;;;;;5026593;28;20410;-82
2023/07/14 00:35:28;;;;;;;10.27;4.10;;;16.30;99.90;;;;;;5029242;28;20044;-82
2023/07/14 00:37:55;;;;;;;;;;;16.20;99.90;;;;;;5026195;28;20065;-82
2023/07/14 00:40:28;;;;;;;13.18;5.10;;;16.20;99.90;;;;;;5013485;28;20116;-82
2023/07/14 00:42:56;;;;;;;;;;;16.20;99.90;;;;;;5028586;28;20033;-82
2023/07/14 00:45:24;;;;;;;12.75;5.00;;;16.20;99.90;;;;;;5014455;28;19973;-82
2023/07/14 00:47:55;;;;;;;11.82;4.70;;;16.10;99.90;;;;;;5006967;28;20075;-82
2023/07/14 00:50:44;;;;;;;11.73;5.13;;;16.10;99.90;;;;;;5007186;28;20482;-82
2023/07/14 00:53:23;;;;;;;11.65;5.03;;;16.10;99.90;;;;;;5038952;28;20612;-82
2023/07/14 00:56:16;;;;;;;11.32;4.55;;;16.10;99.90;;;;;;5011218;28;20041;-82
2023/07/14 00:58:45;;;;;;;12.10;5.97;;;16.00;99.90;;;;;;4992354;28;20141;-83
2023/07/14 01:01:13;;;;;;;13.88;5.55;;;16.00;99.90;;;;;;5028781;28;20045;-82
2023/07/14 01:03:43;;;;;;;12.15;5.47;;;16.00;99.90;;;;;;5028411;28;20041;-82
2023/07/14 01:06:25;;;;;;;14.85;5.75;;;16.00;99.90;;;;;;4998320;28;20148;-82
2023/07/14 01:08:55;;;;;;;13.15;5.05;;;16.00;99.90;;;;;;5027854;28;20056;-82
2023/07/14 01:11:27;;;;;;;9.25;4.72;;;16.00;99.90;;;;;;5015260;28;20519;-82
2023/07/14 01:13:53;;;;;;;11.63;5.55;;;15.90;99.90;;;;;;5029471;28;20037;-82
2023/07/14 01:16:19;;;;;;;10.35;5.35;;;15.90;99.90;;;;;;5014798;28;20075;-82
2023/07/14 01:18:47;;;;;;;10.80;5.18;;;15.90;99.90;;;;;;4999372;28;20060;-82
2023/07/14 01:21:13;;;;;;;13.55;5.47;;;15.90;99.90;;;;;;5025230;28;20603;-82
2023/07/14 01:23:54;;;;;;;11.50;5.47;;;15.80;99.90;;;;;;5022988;28;20032;-82
2023/07/14 01:26:36;;;;;;;11.15;5.45;;;15.80;99.90;;;;;;5041234;28;20044;-82
2023/07/14 01:29:03;;;;;;;11.95;5.43;;;15.80;99.90;;;;;;5027888;28;20048;-82
2023/07/14 01:31:29;;;;;;;11.32;5.60;;;15.80;99.90;;;;;;5025253;28;20118;-82
2023/07/14 01:33:56;;;;;;;10.88;5.47;;;15.70;99.90;;;;;;5025380;28;20033;-82
2023/07/14 01:36:23;;;;;;;12.23;5.68;;;15.70;99.90;;;;;;5013579;28;20095;-82
2023/07/14 01:38:50;;;;;;;10.63;5.05;;;15.70;99.90;;;;;;5039879;28;20111;-82
2023/07/14 01:41:16;;;;;;;13.55;6.15;;;15.70;99.90;;;;;;5025731;27;20045;-82
2023/07/14 01:43:42;;;;;;;11.95;6.28;;;15.70;99.90;;;;;;5012584;28;20037;-82
2023/07/14 01:46:15;;;;;;;12.52;5.78;;;15.70;99.90;;;;;;5013088;28;20032;-82
2023/07/14 01:48:56;;;;;;;11.63;6.03;;;15.70;99.90;;;;;;5020440;28;20041;-82
2023/07/14 01:51:23;;;;;;;11.63;6.63;;;15.70;99.90;;;;;;5039632;28;20152;-82
2023/07/14 01:54:26;;;;;;;12.70;6.43;;;15.70;99.90;;;;;;5099542;27;20700;-82
2023/07/14 01:56:54;;;;;;;11.88;6.68;;;15.60;99.90;;;;;;5104407;27;20043;-82
2023/07/14 01:59:43;;;;;;;11.27;5.95;;;15.60;99.90;;;;;;5110975;27;20034;-82
2023/07/14 02:02:13;;;;;;;12.15;6.55;;;15.60;99.90;;;;;;5094232;27;20047;-82
2023/07/14 02:04:40;;;;;;;11.90;6.53;;;15.60;99.90;;;;;;5109211;27;20038;-82
2023/07/14 02:07:13;;;;;;;14.02;7.07;;;15.60;99.90;;;;;;5110626;27;20191;-82
2023/07/14 02:09:40;;;;;;;13.50;6.93;;;15.60;99.90;;;;;;5120420;27;20046;-82
2023/07/14 02:12:12;;;;;;;13.48;6.68;;;15.60;99.90;;;;;;5094179;27;20441;-82
2023/07/14 02:14:50;;;;;;;13.05;6.85;;;15.60;99.90;;;;;;5105047;27;20042;-82
2023/07/14 02:17:25;;;;;;;14.07;6.82;;;15.60;99.90;;;;;;5111257;27;20054;-82
2023/07/14 02:19:52;;;;;;;12.70;7.07;;;15.60;99.90;;;;;;5108160;27;20042;-82
2023/07/14 02:22:19;;;;;;;13.85;7.30;;;15.60;99.90;;;;;;5112284;27;20044;-82
2023/07/14 02:24:46;;;;;;;13.55;7.60;;;15.60;99.90;;;;;;5105822;27;20053;-82
2023/07/14 02:27:12;;;;;;;12.63;7.30;;;15.50;99.90;;;;;;5088730;27;20059;-82
2023/07/14 02:29:38;;;;;;;12.23;7.00;;;15.50;99.90;;;;;;5116902;27;20050;-83
2023/07/14 02:32:22;;;;;;;12.63;7.03;;;15.50;99.90;;;;;;5112094;27;20038;-82
2023/07/14 02:34:58;;;;;;;13.02;7.05;;;15.50;99.90;;;;;;5116322;27;20053;-82
2023/07/14 02:38:06;;;;;;;12.98;7.30;;;15.50;99.90;;;;;;5092474;27;20039;-82
2023/07/14 02:40:44;;;;;;;14.25;7.82;;;15.50;99.90;;;;;;5098355;27;20046;-82
2023/07/14 02:43:12;;;;;;;13.15;7.20;;;15.50;99.90;;;;;;5116291;27;20135;-82
2023/07/14 02:45:55;;;;;;;13.73;7.10;;;15.50;99.90;;;;;;5093226;27;20111;-82
2023/07/14 02:48:53;;;;;;;14.32;7.43;;;15.50;99.90;;;;;;5104970;27;20555;-82
2023/07/14 02:51:19;;;;;;;14.18;6.70;;;15.50;99.90;;;;;;5068138;27;20070;-82
2023/07/14 02:53:45;;;;;;;15.45;7.32;;;15.40;99.90;;;;;;4997829;28;20156;-82
2023/07/14 02:56:10;;;;;;;14.60;7.68;;;15.40;99.90;;;;;;5016868;28;20049;-82
2023/07/14 02:58:36;;;;;;;14.60;7.72;;;15.40;99.90;;;;;;4996249;28;20068;-82
2023/07/14 03:01:04;;;;;;;14.65;7.70;;;15.40;99.90;;;;;;4994107;28;20029;-83
2023/07/14 03:03:31;;;;;;;13.18;7.95;;;15.40;99.90;;;;;;5014506;28;20091;-82
2023/07/14 03:05:57;;;;;;;13.90;7.93;;;15.40;99.90;;;;;;5018719;28;20052;-82
2023/07/14 03:08:23;;;;;;;15.05;8.43;;;15.40;99.90;;;;;;5024733;28;20041;-82
2023/07/14 03:10:57;;;;;;;14.75;8.35;;;15.40;99.90;;;;;;5042319;28;20055;-82
2023/07/14 03:13:23;;;;;;;15.93;8.50;;;15.50;99.90;;;;;;5028546;27;20045;-82
2023/07/14 03:15:49;;;;;;;14.55;8.93;;;15.50;99.90;;;;;;5005149;28;20044;-81
2023/07/14 03:18:15;;;;;;;14.10;8.60;;;15.50;99.90;;;;;;5023798;28;20033;-82
2023/07/14 03:20:41;;;;;;;13.13;7.97;;;15.50;99.90;;;;;;5016125;28;20040;-82
2023/07/14 03:23:07;;;;;;;14.95;8.77;;;15.40;99.90;;;;;;5017752;28;20048;-82
2023/07/14 03:25:34;;;;;;;15.45;8.55;;;15.40;99.90;;;;;;5008817;28;20037;-82
2023/07/14 03:28:03;;;;;;;14.10;9.02;;;15.40;99.90;;;;;;5009975;28;20066;-82
2023/07/14 03:30:31;;;;;;;15.27;9.32;;;15.40;99.90;;;;;;5037747;28;20119;-82
2023/07/14 03:32:57;;;;;;;14.63;8.73;;;15.40;99.90;;;;;;5083372;27;20144;-82
2023/07/14 03:35:23;;;;;;;15.27;8.85;;;15.30;99.90;;;;;;5028265;28;20487;-82
2023/07/14 03:37:48;;;;;;;15.40;9.60;;;15.40;99.90;;;;;;4989552;28;20412;-82
2023/07/14 03:40:14;;;;;;;14.63;8.40;;;15.40;99.90;;;;;;5038545;28;20425;-82
2023/07/14 03:42:43;;;;;;;17.38;9.40;;;15.30;99.90;;;;;;5030337;28;20697;-82
2023/07/14 03:45:09;;;;;;;15.05;8.25;;;15.30;99.90;;;;;;5028018;28;20037;-82
2023/07/14 03:47:38;;;;;;;15.25;9.63;;;15.30;99.90;;;;;;5057221;28;20112;-82
2023/07/14 03:50:04;;;;;;;15.65;9.07;;;15.30;99.90;;;;;;5019488;28;20045;-82
2023/07/14 03:52:30;;;;;;;14.52;9.38;;;15.20;99.90;;;;;;5012525;28;20058;-82
2023/07/14 03:54:55;;;;;;;14.32;8.48;;;15.20;99.90;;;;;;5006283;28;20121;-82
2023/07/14 03:57:21;;;;;;;14.40;8.73;;;15.20;99.90;;;;;;4987447;28;20041;-82
2023/07/14 03:59:47;;;;;;;14.27;8.90;;;15.30;99.90;;;;;;5016937;28;20626;-82
2023/07/14 04:02:12;;;;;;;15.32;8.88;;;15.30;99.90;;;;;;5007454;28;20077;-82
2023/07/14 04:04:38;;;;;;;14.07;8.73;;;15.30;99.90;;;;;;4991401;28;20060;-82
2023/07/14 04:07:04;;;;;;;13.45;8.35;;;15.30;99.90;;;;;;5010042;28;20093;-82
2023/07/14 04:09:30;;;;;;;14.65;8.43;;;15.30;99.90;;;;;;5015688;28;20540;-82
2023/07/14 04:11:55;;;;;;;15.63;8.63;;;15.30;99.90;;;;;;5010046;28;20037;-82
2023/07/14 04:14:21;;;;;;;15.95;8.02;;;15.30;99.90;;;;;;5014419;28;20502;-82
2023/07/14 04:16:47;;;;;;;13.38;8.40;;;15.30;99.90;;;;;;5024401;28;20040;-82
2023/07/14 04:19:13;;;;;;;13.88;7.80;;;15.30;99.90;;;;;;4990808;28;20336;-82
2023/07/14 04:21:38;;;;;;;13.30;7.38;;;15.30;99.90;;;;;;4992908;28;20041;-82
2023/07/14 04:24:04;;;;;;;16.48;7.78;;;15.40;99.90;;;;;;5006314;28;20061;-82
2023/07/14 04:26:30;;;;;;;16.50;7.85;;;15.40;99.90;;;;;;5012640;28;20037;-83
2023/07/14 04:28:56;;;;;;;12.35;7.65;;;15.40;99.90;;;;;;5010735;28;20040;-83
2023/07/14 04:31:22;;;;;;;17.58;8.20;;;15.50;99.90;;;;;;5013636;28;20053;-82
2023/07/14 04:33:50;;;;;;;14.65;7.72;;;15.50;99.90;;;;;;5005097;28;21696;-82
2023/07/14 04:36:16;;;;;;;13.90;7.53;;;15.50;99.90;;;;;;4992266;28;20041;-82
2023/07/14 04:38:45;;;;;;;15.00;7.45;;;15.50;99.90;;;;;;5069716;28;20124;-82
2023/07/14 04:41:13;;;;;;;12.98;6.90;;;15.60;99.90;;;;;;5016016;28;20038;-82
2023/07/14 04:43:38;;;;;;;12.82;7.50;;;15.60;99.90;;;;;;5006347;28;20037;-82
2023/07/14 04:46:04;;;;;;;11.98;6.78;;;15.60;99.90;;;;;;5017482;28;20089;-82
2023/07/14 04:48:30;;;;;;;13.95;7.32;;;15.70;99.90;;;;;;5008586;28;20037;-82
2023/07/14 04:50:55;;;;;;;13.43;7.05;;;15.70;99.90;;;;;;5025062;27;20126;-82
2023/07/14 04:53:21;;;;;;;13.27;7.18;;;15.70;99.90;;;;;;5009045;28;20128;-82
2023/07/14 04:55:48;;;;;;;14.48;7.35;;;15.80;99.90;;;;;;5003735;28;20056;-83
2023/07/14 04:58:16;;;;;;;14.30;6.82;;;15.80;99.90;;;;;;5008597;28;20148;-83
2023/07/14 05:00:45;;;;;;;15.45;7.18;;;15.80;99.90;;;;;;5032864;27;20033;-82
2023/07/14 05:03:11;;;;;;;11.30;6.47;;;15.80;99.90;;;;;;5010830;28;20481;-82
2023/07/14 05:05:37;;;;;;;13.98;6.45;;;15.80;99.90;;;;;;4996094;28;20045;-82
2023/07/14 05:08:03;;;;;;;13.15;6.15;;;15.90;99.90;;;;;;5014593;28;20042;-82
2023/07/14 05:10:32;;;;;;;14.05;6.43;;;16.00;99.90;;;;;;4994029;28;20079;-82
2023/07/14 05:12:58;;;;;;;12.27;5.63;;;16.00;99.90;;;;;;5013769;28;20037;-82
2023/07/14 05:15:25;;;;;;;12.65;6.38;;;16.00;99.90;;;;;;5050049;28;20097;-82
2023/07/14 05:17:51;;;;;;;15.82;6.15;;;16.10;99.90;;;;;;5027893;28;20033;-82
2023/07/14 05:20:19;;;;;;;12.65;5.68;;;16.20;99.90;;;;;;5028523;27;20045;-81
2023/07/14 05:22:48;;;;;;;13.25;5.40;;;16.20;99.90;;;;;;5001021;28;20033;-83
2023/07/14 05:25:15;;;;;;;12.25;5.68;;;16.40;99.90;;;;;;5027307;28;20394;-83
2023/07/14 05:27:43;;;;;;;13.30;5.38;;;16.40;99.90;;;;;;5010641;28;20045;-83
2023/07/14 05:30:12;;;;;;;15.35;6.13;;;16.50;99.90;;;;;;5046559;27;20041;-82
2023/07/14 05:32:38;;;;;;;11.18;5.72;;;16.50;99.90;;;;;;5032110;27;20053;-82
2023/07/14 05:35:04;;;;;;;11.43;4.95;;;16.60;99.90;;;;;;4995772;28;20115;-82
2023/07/14 05:37:30;;;;;;;11.60;5.60;;;16.60;99.90;;;;;;5032870;28;20037;-82
2023/07/14 05:39:56;;;;;;;12.55;5.85;;;16.70;99.90;;;;;;5005829;28;20483;-83
2023/07/14 05:42:21;;;;;;;10.57;4.80;;;16.80;99.90;;;;;;5059431;28;20116;-82
2023/07/14 05:44:47;;;;;;;12.50;5.00;;;16.80;99.90;;;;;;5028382;28;20048;-82
2023/07/14 05:47:13;;;;;;;10.20;4.93;;;16.90;99.90;;;;;;5012080;27;20458;-82
2023/07/14 05:49:39;;;;;;;12.40;4.85;;;16.90;99.90;;;;;;5007686;28;20036;-82
2023/07/14 05:52:08;;;;;;;11.80;5.22;;;17.00;99.90;;;;;;5020007;28;20525;-83
2023/07/14 05:54:34;;;;;;;10.98;4.78;;;17.10;99.90;;;;;;5036763;28;20068;-83
2023/07/14 05:56:59;;;;;;;11.25;4.53;;;17.20;99.90;;;;;;5036744;28;20502;-83
2023/07/14 05:59:26;;;;;;;11.15;4.97;;;17.30;99.90;;;;;;5038966;27;20394;-83
2023/07/14 06:01:51;;;;;;;11.02;4.82;;;17.30;99.90;;;;;;5008568;27;20131;-82
2023/07/14 06:04:17;;;;;;;14.65;5.20;;;17.40;99.90;;;;;;5010617;28;20547;-82
2023/07/14 06:06:43;;;;;;;10.82;4.55;;;17.40;99.90;;;;;;5023863;28;20044;-81
2023/07/14 06:09:09;;;;;;;11.57;4.82;;;17.60;99.90;;;;;;4979973;27;20502;-82
2023/07/14 06:11:35;;;;;;;12.55;4.80;;;17.50;99.90;;;;;;4993572;28;20105;-82
2023/07/14 06:14:01;;;;;;;13.90;4.47;;;17.60;99.90;;;;;;5006981;28;20049;-82
2023/07/14 06:16:27;;;;;;;13.05;4.82;;;17.60;99.90;;;;;;5030677;27;20052;-81
2023/07/14 06:18:53;;;;;;;13.07;4.40;;;17.70;99.90;;;;;;5003226;28;20044;-81
2023/07/14 06:21:19;;;;;;;11.57;4.60;;;17.80;99.90;;;;;;5024709;28;20059;-82
2023/07/14 06:23:44;;;;;;;10.65;4.45;;;17.90;99.90;;;;;;5008729;28;20060;-82
2023/07/14 06:26:11;;;;;;;13.70;4.63;;;18.00;99.90;;;;;;5021099;28;20168;-82
2023/07/14 06:28:37;;;;;;;11.07;4.45;;;18.10;99.90;;;;;;5007354;28;20616;-82
2023/07/14 06:31:05;;;;;;;11.15;4.47;;;18.10;99.90;;;;;;5004679;28;20044;-82
2023/07/14 06:33:32;;;;;;;11.13;4.28;;;18.20;99.90;;;;;;5003652;28;20048;-82
2023/07/14 06:35:58;;;;;;;10.98;4.55;;;18.30;99.90;;;;;;5028980;27;20047;-81
2023/07/14 06:38:25;;;;;;;10.68;4.28;;;18.40;99.90;;;;;;5027031;27;20071;-81
2023/07/14 06:41:02;;;;;;;11.88;4.55;;;18.50;99.90;;;;;;4985407;28;20112;-82
2023/07/14 06:43:30;;;;;;;10.05;4.00;;;18.60;99.90;;;;;;5001274;27;20531;-81
2023/07/14 06:45:55;;;;;;;13.30;4.35;;;18.70;99.90;;;;;;5015963;28;20425;-82
2023/07/14 06:48:21;;;;;;;11.18;4.22;;;18.70;99.90;;;;;;5009774;27;20109;-82
2023/07/14 06:50:47;;;;;;;10.05;4.38;;;18.80;99.90;;;;;;5004846;28;20554;-82
2023/07/14 06:53:13;;;;;;;13.30;4.22;;;18.80;99.90;;;;;;5021144;28;20567;-82
2023/07/14 06:55:40;;;;;;;12.27;4.18;;;18.90;99.90;;;;;;4990534;28;20132;-82
2023/07/14 06:58:07;;;;;;;10.93;3.75;;;18.90;99.90;;;;;;5006488;28;20094;-82
2023/07/14 07:00:33;;;;;;;11.35;3.85;;;19.00;99.90;;;;;;5018622;27;20040;-82
2023/07/14 07:03:00;;;;;;;11.32;4.00;;;19.00;99.90;;;;;;4988995;28;20128;-82
2023/07/14 07:05:26;;;;;;;11.02;3.90;;;19.20;99.90;;;;;;5071264;28;20044;-81
2023/07/14 07:07:53;;;;;;;12.45;4.57;;;19.20;99.90;;;;;;5022893;28;20033;-81
2023/07/14 07:10:19;;;;;;;9.70;3.50;;;19.30;99.90;;;;;;5000219;28;20033;-81
2023/07/14 07:12:45;;;;;;;10.60;3.85;;;19.40;99.90;;;;;;5018557;28;20565;-81
2023/07/14 07:15:11;;;;;;;11.05;4.00;;;19.50;99.90;;;;;;5003780;28;20036;-82
2023/07/14 07:17:40;;;;;;;11.82;3.67;;;19.50;99.90;;;;;;5024806;27;20045;-82
2023/07/14 07:20:07;;;;;;;10.88;3.50;;;19.60;99.90;;;;;;5005765;28;20403;-82
2023/07/14 07:22:33;;;;;;;11.10;3.85;;;19.60;99.90;;;;;;5006583;28;20071;-82
2023/07/14 07:24:59;;;;;;;10.02;3.47;;;19.60;99.90;;;;;;5024912;28;20033;-82
2023/07/14 07:27:25;;;;;;;10.30;3.42;;;19.80;99.90;;;;;;5014925;28;20041;-82
2023/07/14 07:29:51;;;;;;;10.57;3.20;;;19.80;99.90;;;;;;5019666;28;20029;-82
2023/07/14 07:32:17;;;;;;;12.10;3.53;;;19.90;99.90;;;;;;4997040;28;20052;-83
2023/07/14 07:34:43;;;;;;;10.68;3.20;;;20.00;99.90;;;;;;4999997;28;20128;-82
2023/07/14 07:37:10;;;;;;;9.23;3.00;;;20.00;99.90;;;;;;5007155;28;20755;-82
2023/07/14 07:39:37;;;;;;;10.35;2.67;;;20.10;99.90;;;;;;5026175;27;20398;-82
2023/07/14 07:42:03;;;;;;;10.13;3.40;;;20.10;99.90;;;;;;5038678;28;20041;-82
2023/07/14 07:44:30;;;;;;;11.27;3.10;;;20.20;99.90;;;;;;5015464;28;20040;-82
2023/07/14 07:46:56;;;;;;;8.48;2.80;;;20.20;99.90;;;;;;5001643;28;20270;-82
2023/07/14 07:49:21;;;;;;;8.85;2.75;;;21.20;99.90;;;;;;5054329;28;20077;-82
2023/07/14 07:51:47;;;;;;;7.90;2.65;;;20.30;99.90;;;;;;5004133;28;20545;-82
2023/07/14 07:54:13;;;;;;;8.73;2.85;;;20.30;99.90;;;;;;5007253;28;20554;-82
2023/07/14 07:56:42;;;;;;;9.52;2.90;;;20.50;99.90;;;;;;4989248;28;20040;-82
2023/07/14 07:59:15;;;;;;;11.68;2.83;;;20.40;99.90;;;;;;5006379;28;20037;-82
2023/07/14 08:01:42;;;;;;;10.40;2.55;;;20.60;99.90;;;;;;5023840;27;20037;-81
2023/07/14 08:04:09;;;;;;;10.20;3.00;;;20.60;99.90;;;;;;5018187;28;20040;-82
2023/07/14 08:06:36;;;;;;;8.00;2.42;;;20.60;99.90;;;;;;5017409;28;20044;-81
2023/07/14 08:09:06;;;;;;;7.80;2.30;;;20.70;99.90;;;;;;5005888;27;20045;-83
2023/07/14 08:11:32;;;;;;;9.05;2.40;;;20.70;99.90;;;;;;5011012;28;20041;-83
2023/07/14 08:14:01;;;;;;;7.93;2.47;;;20.80;99.90;;;;;;5005093;28;20047;-83
2023/07/14 08:16:27;;;;;;;8.27;2.60;;;20.80;99.90;;;;;;5014457;28;20049;-83
2023/07/14 08:18:53;;;;;;;11.90;3.30;;;21.10;99.90;;;;;;5002096;28;20056;-83
2023/07/14 08:21:19;;;;;;;10.00;3.17;;;21.20;99.90;;;;;;4987921;27;20034;-83
2023/07/14 08:23:45;;;;;;;9.30;2.80;;;20.20;99.90;;;;;;5005167;28;20057;-83
2023/07/14 08:26:11;;;;;;;10.55;2.78;;;21.50;99.90;;;;;;5082427;27;20045;-83
2023/07/14 08:28:36;;;;;;;8.10;2.88;;;21.70;99.90;;;;;;5019363;28;20090;-83
2023/07/14 08:31:09;;;;;;;9.48;2.60;;;21.70;99.90;;;;;;5017771;28;20048;-83
2023/07/14 08:33:35;;;;;;;9.20;3.00;;;21.70;99.90;;;;;;5005225;27;20053;-84
2023/07/14 08:36:02;;;;;;;8.32;2.85;;;21.70;99.90;;;;;;5021709;28;20538;-83
2023/07/14 08:38:30;;;;;;;8.88;2.72;;;21.60;99.90;;;;;;5018810;27;20116;-83
2023/07/14 08:41:11;;;;;;;9.13;2.50;;;21.60;99.90;;;;;;5025039;28;20635;-83
2023/07/14 08:44:08;;;;;;;8.23;2.95;;;21.50;99.90;;;;;;5023920;28;20422;-83
2023/07/14 08:46:55;;;;;;;7.88;2.80;;;21.60;99.90;;;;;;5008526;28;20097;-83
2023/07/14 08:49:23;;;;;;;7.32;2.67;;;21.80;99.90;;;;;;5017096;28;20575;-83
2023/07/14 08:51:55;;;;;;;9.95;2.80;;;21.80;99.90;;;;;;5005244;27;20089;-83
2023/07/14 08:54:24;;;;;;;8.82;2.67;;;21.80;99.90;;;;;;5028215;27;20485;-83
2023/07/14 08:56:52;;;;;;;8.02;2.65;;;21.70;99.90;;;;;;5016425;28;20040;-83
2023/07/14 08:59:40;;;;;;;8.35;2.70;;;21.90;99.90;;;;;;5031297;28;20142;-83
2023/07/14 09:02:45;;;;;;;8.95;3.20;;;22.00;99.90;;;;;;5012688;28;20068;-83
2023/07/14 09:05:23;;;;;;;8.80;2.50;;;22.20;99.90;;;;;;5016381;28;20545;-83
2023/07/14 09:07:49;;;;;;;8.65;2.83;;;22.40;99.90;;;;;;5025292;28;20041;-83
2023/07/14 09:10:15;;;;;;;9.05;3.10;;;22.50;99.90;;;;;;5033930;28;20037;-83
2023/07/14 09:13:03;;;;;;;7.63;2.60;;;22.60;99.90;;;;;;5019684;28;20497;-83
2023/07/14 09:15:29;;;;;;;8.75;2.50;;;22.70;99.90;;;;;;5008166;28;20120;-83
2023/07/14 09:18:19;;;;;;;7.50;2.35;;;22.80;99.90;;;;;;5050653;28;20535;-83
2023/07/14 09:21:00;;;;;;;11.40;3.22;;;22.80;99.90;;;;;;5050525;28;20095;-85
2023/07/14 09:23:56;;;;;;;7.90;2.58;;;22.90;99.90;;;;;;5038913;28;20052;-83
2023/07/14 09:26:34;;;;;;;9.27;2.80;;;22.90;99.90;;;;;;5024273;28;20410;-83
2023/07/14 09:29:11;;;;;;;7.13;2.53;;;22.90;99.90;;;;;;5050574;28;20490;-84
2023/07/14 09:31:56;;;;;;;8.68;2.65;;;22.90;99.90;;;;;;5033753;28;20108;-83
2023/07/14 09:34:30;;;;;;;8.10;2.80;;;22.70;99.90;;;;;;5044506;28;20144;-83
2023/07/14 09:36:56;;;;;;;7.25;2.53;;;22.50;99.90;;;;;;5030223;28;20384;-83
2023/07/14 09:39:32;;;;;;;9.30;2.78;;;22.50;99.90;;;;;;5013927;28;20029;-84
2023/07/14 09:42:00;;;;;;;7.55;2.40;;;22.30;99.90;;;;;;5035797;28;20048;-83
2023/07/14 09:44:26;;;;;;;8.88;2.70;;;22.10;99.90;;;;;;5045582;28;20037;-83
2023/07/14 09:46:53;;;;;;;9.00;2.60;;;21.90;99.90;;;;;;5030045;28;20580;-83
2023/07/14 09:49:23;;;;;;;7.28;2.47;;;22.00;99.90;;;;;;5041606;28;20072;-83
2023/07/14 09:52:10;;;;;;;8.35;2.80;;;21.80;99.90;;;;;;5050061;28;20124;-83
2023/07/14 09:54:42;;;;;;;10.73;2.92;;;21.70;99.90;;;;;;5024589;28;20553;-83
2023/07/14 09:57:11;;;;;;;8.45;2.75;;;21.80;99.90;;;;;;5013631;28;20049;-82
2023/07/14 09:59:50;;;;;;;7.70;2.78;;;22.10;99.90;;;;;;5030205;28;20452;-84
2023/07/14 10:02:17;;;;;;;9.80;2.70;;;22.30;99.90;;;;;;5030280;28;20070;-83
2023/07/14 10:04:47;;;;;;;8.68;2.80;;;22.60;99.90;;;;;;5014048;28;20037;-83
2023/07/14 10:07:25;;;;;;;6.47;2.30;;;22.80;99.90;;;;;;5058149;27;20037;-83
2023/07/14 10:10:01;;;;;;;8.40;2.53;;;23.10;99.90;;;;;;5061127;28;20036;-83
2023/07/14 10:12:48;;;;;;;7.10;2.20;;;23.10;99.90;;;;;;5033095;28;20501;-83
2023/07/14 10:15:49;;;;;;;9.07;2.78;;;23.30;99.90;;;;;;5033669;28;20037;-84
2023/07/14 10:18:15;;;;;;;7.32;2.60;;;23.40;99.90;;;;;;5045943;28;20476;-84
2023/07/14 10:20:53;;;;;;;7.75;2.58;;;23.40;99.90;;;;;;5042382;28;20037;-83
2023/07/14 10:23:19;;;;;;;7.75;2.50;;;23.40;99.90;;;;;;5004415;28;20501;-84
2023/07/14 10:25:50;;;;;;;7.45;2.70;;;23.50;99.90;;;;;;5049652;28;20113;-83
2023/07/14 10:28:23;;;;;;;6.55;2.30;;;23.50;99.90;;;;;;5035602;28;20029;-83
2023/07/14 10:31:20;;;;;;;7.85;2.70;;;23.20;99.90;;;;;;5044744;28;20037;-83
2023/07/14 10:34:17;;;;;;;7.53;2.45;;;23.00;99.90;;;;;;5013217;28;20045;-83
2023/07/14 10:36:43;;;;;;;9.88;3.03;;;23.00;99.90;;;;;;5028746;28;20045;-83
2023/07/14 10:39:22;;;;;;;8.23;2.70;;;22.80;99.90;;;;;;5011988;28;20112;-83
2023/07/14 10:41:49;;;;;;;8.20;2.70;;;22.80;99.90;;;;;;5007779;28;20072;-83
2023/07/14 10:44:30;;;;;;;6.78;2.33;;;22.70;99.90;;;;;;5032819;28;20236;-83
2023/07/14 10:47:02;;;;;;;7.95;2.75;;;22.80;99.90;;;;;;5076141;27;20102;-84
2023/07/14 10:49:35;;;;;;;8.55;2.80;;;23.00;99.90;;;;;;5031536;28;20116;-84
2023/07/14 10:52:08;;;;;;;;;;;23.20;99.90;;;;;;5049591;28;20116;-84
2023/07/14 10:54:47;;;;;;;9.15;2.90;;;23.30;99.90;;;;;;5023560;28;19969;-84
2023/07/14 10:57:28;;;;;;;6.95;2.30;;;23.60;99.90;;;;;;5012840;28;20443;-84
2023/07/14 11:00:19;;;;;;;7.68;2.70;;;23.80;99.90;;;;;;5028110;28;20036;-86
2023/07/14 11:02:59;;;;;;;8.48;2.70;;;23.60;99.90;;;;;;5029234;28;20044;-84
2023/07/14 11:05:27;;;;;;;8.80;2.72;;;23.30;99.90;;;;;;5029124;28;20375;-82
2023/07/14 11:07:54;;;;;;;7.53;2.80;;;23.00;99.90;;;;;;5016344;28;20497;-83
2023/07/14 11:10:22;;;;;;;8.55;2.88;;;22.90;99.90;;;;;;5030842;28;20112;-83
2023/07/14 11:12:56;;;;;;;9.13;2.90;;;22.70;99.90;;;;;;5029035;28;20052;-83
2023/07/14 11:15:40;;;;;;;8.00;3.03;;;22.70;99.90;;;;;;5028859;28;20178;-84
2023/07/14 11:18:27;;;;;;;11.35;3.20;;;22.70;99.90;;;;;;5028830;28;20041;-84
2023/07/14 11:21:18;;;;;;;7.85;2.83;;;22.70;99.90;;;;;;5029575;28;20414;-83
2023/07/14 11:23:54;;;;;;;7.60;2.92;;;22.70;99.90;;;;;;5028558;28;20037;-83
2023/07/14 11:26:28;;;;;;;8.38;3.08;;;22.70;99.90;;;;;;5028766;28;20045;-83
2023/07/14 11:29:09;;;;;;;10.35;3.50;;;23.00;99.90;;;;;;5012706;28;20269;-84
2023/07/14 11:31:56;;;;;;;8.52;3.10;;;23.30;99.90;;;;;;5027358;28;20052;-83
2023/07/14 11:34:37;;;;;;;8.20;3.00;;;23.80;99.90;;;;;;5028689;28;20053;-84
2023/07/14 11:37:32;;;;;;;9.50;3.40;;;23.80;99.90;;;;;;5012506;28;20089;-83
2023/07/14 11:39:59;;;;;;;9.10;3.10;;;24.00;99.90;;;;;;5013159;28;20037;-84
2023/07/14 11:42:27;;;;;;;9.32;3.35;;;24.10;99.90;;;;;;5026361;28;20478;-83
2023/07/14 11:44:55;;;;;;;8.07;3.00;;;24.30;99.90;;;;;;5028514;28;20130;-83
2023/07/14 11:47:37;;;;;;;9.18;3.10;;;24.30;99.90;;;;;;5012336;28;20301;-83
2023/07/14 11:50:15;;;;;;;8.88;3.20;;;23.90;99.90;;;;;;5029368;28;20047;-83
2023/07/14 11:52:55;;;;;;;8.88;2.67;;;23.90;99.90;;;;;;5027192;28;20106;-83
2023/07/14 11:55:23;;;;;;;8.68;3.35;;;23.80;99.90;;;;;;5028058;28;20041;-83
2023/07/14 11:58:19;;;;;;;8.55;3.22;;;23.80;99.90;;;;;;5015932;28;20048;-83
2023/07/14 12:00:59;;;;;;;9.85;2.80;;;23.90;99.90;;;;;;5010732;28;20037;-83
2023/07/14 12:03:32;;;;;;;7.43;2.63;;;23.90;99.90;;;;;;5026372;28;20049;-83
2023/07/14 12:06:20;;;;;;;9.00;3.25;;;23.80;99.90;;;;;;5029250;28;20043;-83
2023/07/14 12:09:04;;;;;;;8.35;3.00;;;23.80;99.90;;;;;;5057148;28;20123;-83
2023/07/14 12:11:39;;;;;;;8.20;3.10;;;23.90;99.90;;;;;;5031663;28;20040;-83
2023/07/14 12:14:23;;;;;;;8.95;3.00;;;23.90;99.90;;;;;;5025036;28;20045;-83
2023/07/14 12:16:49;;;;;;;7.80;3.05;;;23.80;99.90;;;;;;5027893;28;20069;-83
2023/07/14 12:19:20;;;;;;;9.02;3.20;;;23.80;99.90;;;;;;5077306;28;20076;-83
2023/07/14 12:22:03;;;;;;;8.13;3.13;;;23.80;99.90;;;;;;5003718;28;20037;-83
2023/07/14 12:24:34;;;;;;;9.45;3.10;;;23.80;99.90;;;;;;5010990;28;20437;-83
2023/07/14 12:27:30;;;;;;;9.20;3.47;;;23.70;99.90;;;;;;5028267;28;20041;-84
2023/07/14 12:30:21;;;;;;;9.75;3.35;;;23.70;99.90;;;;;;5028281;28;20056;-84
2023/07/14 12:32:49;;;;;;;8.73;3.17;;;23.60;99.90;;;;;;5014792;28;20108;-83
2023/07/14 12:35:17;;;;;;;8.18;2.97;;;23.60;99.90;;;;;;5011218;28;20094;-83
2023/07/14 12:37:43;;;;;;;10.38;3.00;;;23.50;99.90;;;;;;5011356;28;20132;-83
2023/07/14 12:40:14;;;;;;;9.27;3.10;;;23.40;99.90;;;;;;5028170;28;20037;-84
2023/07/14 12:42:44;;;;;;;8.98;3.30;;;23.40;99.90;;;;;;5027999;28;20199;-83
2023/07/14 12:45:12;;;;;;;7.53;2.85;;;23.30;99.90;;;;;;5076729;28;20045;-83
2023/07/14 12:47:43;;;;;;;8.88;3.08;;;23.30;99.90;;;;;;5022198;28;20117;-84
2023/07/14 12:50:15;;;;;;;9.57;3.17;;;23.20;99.90;;;;;;5027916;28;20041;-83
2023/07/14 12:52:44;;;;;;;10.02;3.28;;;23.10;99.90;;;;;;5027480;28;20061;-83
2023/07/14 12:55:14;;;;;;;9.85;3.03;;;23.00;99.90;;;;;;5025751;28;20037;-84
2023/07/14 12:57:39;;;;;;;10.23;3.20;;;22.90;99.90;;;;;;5027649;28;20041;-83
2023/07/14 13:00:21;;;;;;;9.43;3.30;;;22.90;99.90;;;;;;5011166;28;20037;-84